sensor_id;sensor_type;location;lat;lon;timestamp;temperature;humidity
2721;DHT22;1368;49.484;11.112;2023-06-26T00:01:49;19.70;99.90
2721;DHT22;1368;49.484;11.112;2023-06-26T00:04:15;19.60;99.90
2721;DHT22;1368;49.484;11.112;2023-06-26T00:06:41;19.40;99.90
2721;DHT22;1368;49.484;11.112;2023-06-26T00:09:08;19.30;99.90
2721;DHT22;1368;49.484;11.112;2023-06-26T00:11:33;19.10;99.90
2721;DHT22;1368;49.484;11.112;2023-06-26T00:14:00;19.10;99.90
2721;DHT22;1368;49.484;11.112;2023-06-26T00:16:26;19.50;99.90
2721;DHT22;1368;49.484;11.112;2023-06-26T00:18:53;19.20;99.90
2721;DHT22;1368;49.484;11.112;2023-06-26T00:21:18;19.00;99.90
2721;DHT22;1368;49.484;11.112;2023-06-26T00:23:44;19.20;99.90
2721;DHT22;1368;49.484;11.112;2023-06-26T00:26:10;19.40;99.90
2721;DHT22;1368;49.484;11.112;2023-06-26T00:28:36;18.70;99.90
2721;DHT22;1368;49.484;11.112;2023-06-26T00:31:02;18.80;99.90
2721;DHT22;1368;49.484;11.112;2023-06-26T00:33:27;18.90;99.90
2721;DHT22;1368;49.484;11.112;2023-06-26T00:35:53;19.00;99.90
2721;DHT22;1368;49.484;11.112;2023-06-26T00:38:18;18.90;99.90
2721;DHT22;1368;49.484;11.112;2023-06-26T00:40:44;19.00;99.90
2721;DHT22;1368;49.484;11.112;2023-06-26T00:43:09;19.10;99.90
2721;DHT22;1368;49.484;11.112;2023-06-26T00:45:35;18.60;99.90
2721;DHT22;1368;49.484;11.112;2023-06-26T00:48:01;18.40;99.90
2721;DHT22;1368;49.484;11.112;2023-06-26T00:50:28;18.50;99.90
2721;DHT22;1368;49.484;11.112;2023-06-26T00:52:54;18.50;99.90
2721;DHT22;1368;49.484;11.112;2023-06-26T00:55:22;18.60;99.90
2721;DHT22;1368;49.484;11.112;2023-06-26T00:57:47;18.80;99.90
2721;DHT22;1368;49.484;11.112;2023-06-26T01:00:14;19.40;99.90
2721;DHT22;1368;49.484;11.112;2023-06-26T01:02:40;19.00;99.90
2721;DHT22;1368;49.484;11.112;2023-06-26T01:05:06;18.90;99.90
2721;DHT22;1368;49.484;11.112;2023-06-26T01:07:36;18.50;99.90
2721;DHT22;1368;49.484;11.112;2023-06-26T01:10:06;18.40;99.90
2721;DHT22;1368;49.484;11.112;2023-06-26T01:12:33;18.40;99.90
2721;DHT22;1368;49.484;11.112;2023-06-26T01:14:59;18.60;99.90
2721;DHT22;1368;49.484;11.112;2023-06-26T01:17:26;18.70;99.90
2721;DHT22;1368;49.484;11.112;2023-06-26T01:19:53;18.60;99.90
2721;DHT22;1368;49.484;11.112;2023-06-26T01:22:37;18.70;99.90
2721;DHT22;1368;49.484;11.112;2023-06-26T01:27:48;19.00;99.90
2721;DHT22;1368;49.484;11.112;2023-06-26T01:30:16;19.00;99.90
2721;DHT22;1368;49.484;11.112;2023-06-26T01:32:42;19.00;99.90
2721;DHT22;1368;49.484;11.112;2023-06-26T01:35:09;19.20;99.90
2721;DHT22;1368;49.484;11.112;2023-06-26T01:37:35;19.00;99.90
2721;DHT22;1368;49.484;11.112;2023-06-26T01:40:00;19.20;99.90
2721;DHT22;1368;49.484;11.112;2023-06-26T01:42:26;19.40;99.90
2721;DHT22;1368;49.484;11.112;2023-06-26T01:44:55;18.90;99.90
2721;DHT22;1368;49.484;11.112;2023-06-26T01:47:22;19.30;99.90
2721;DHT22;1368;49.484;11.112;2023-06-26T01:50:22;19.20;99.90
2721;DHT22;1368;49.484;11.112;2023-06-26T01:53:00;18.80;99.90
2721;DHT22;1368;49.484;11.112;2023-06-26T01:55:30;18.90;99.90
2721;DHT22;1368;49.484;11.112;2023-06-26T01:57:59;19.30;99.90
2721;DHT22;1368;49.484;11.112;2023-06-26T02:00:25;19.30;99.90
2721;DHT22;1368;49.484;11.112;2023-06-26T02:02:52;19.00;99.90
2721;DHT22;1368;49.484;11.112;2023-06-26T02:05:17;18.80;99.90
2721;DHT22;1368;49.484;11.112;2023-06-26T02:07:43;18.80;99.90
2721;DHT22;1368;49.484;11.112;2023-06-26T02:10:09;18.90;99.90
2721;DHT22;1368;49.484;11.112;2023-06-26T02:12:35;18.90;99.90
2721;DHT22;1368;49.484;11.112;2023-06-26T02:15:02;19.20;99.90
2721;DHT22;1368;49.484;11.112;2023-06-26T02:17:27;19.20;99.90
2721;DHT22;1368;49.484;11.112;2023-06-26T02:19:53;19.10;99.90
2721;DHT22;1368;49.484;11.112;2023-06-26T02:22:18;18.80;99.90
2721;DHT22;1368;49.484;11.112;2023-06-26T02:24:44;18.70;99.90
2721;DHT22;1368;49.484;11.112;2023-06-26T02:27:10;18.70;99.90
2721;DHT22;1368;49.484;11.112;2023-06-26T02:29:36;18.70;99.90
2721;DHT22;1368;49.484;11.112;2023-06-26T02:32:02;18.90;99.90
2721;DHT22;1368;49.484;11.112;2023-06-26T02:34:27;18.70;99.90
2721;DHT22;1368;49.484;11.112;2023-06-26T02:36:54;19.10;99.90
2721;DHT22;1368;49.484;11.112;2023-06-26T02:39:20;18.70;99.90
2721;DHT22;1368;49.484;11.112;2023-06-26T02:41:46;19.10;99.90
2721;DHT22;1368;49.484;11.112;2023-06-26T02:44:12;19.10;99.90
2721;DHT22;1368;49.484;11.112;2023-06-26T02:46:38;18.60;99.90
2721;DHT22;1368;49.484;11.112;2023-06-26T02:49:04;18.50;99.90
2721;DHT22;1368;49.484;11.112;2023-06-26T02:51:31;18.60;99.90
2721;DHT22;1368;49.484;11.112;2023-06-26T02:53:57;18.10;99.90
2721;DHT22;1368;49.484;11.112;2023-06-26T02:56:22;18.10;99.90
2721;DHT22;1368;49.484;11.112;2023-06-26T02:58:48;18.10;99.90
2721;DHT22;1368;49.484;11.112;2023-06-26T03:01:13;17.70;99.90
2721;DHT22;1368;49.484;11.112;2023-06-26T03:03:41;17.70;99.90
2721;DHT22;1368;49.484;11.112;2023-06-26T03:06:07;17.90;99.90
2721;DHT22;1368;49.484;11.112;2023-06-26T03:08:36;17.20;99.90
2721;DHT22;1368;49.484;11.112;2023-06-26T03:11:02;17.00;99.90
2721;DHT22;1368;49.484;11.112;2023-06-26T03:13:27;17.10;99.90
2721;DHT22;1368;49.484;11.112;2023-06-26T03:15:53;16.90;99.90
2721;DHT22;1368;49.484;11.112;2023-06-26T03:18:18;17.00;99.90
2721;DHT22;1368;49.484;11.112;2023-06-26T03:20:44;16.90;99.90
2721;DHT22;1368;49.484;11.112;2023-06-26T03:23:09;17.00;99.90
2721;DHT22;1368;49.484;11.112;2023-06-26T03:25:35;17.10;99.90
2721;DHT22;1368;49.484;11.112;2023-06-26T03:28:00;17.40;99.90
2721;DHT22;1368;49.484;11.112;2023-06-26T03:30:26;16.90;99.90
2721;DHT22;1368;49.484;11.112;2023-06-26T03:32:52;17.00;99.90
2721;DHT22;1368;49.484;11.112;2023-06-26T03:35:17;17.30;99.90
2721;DHT22;1368;49.484;11.112;2023-06-26T03:37:43;17.20;99.90
2721;DHT22;1368;49.484;11.112;2023-06-26T03:40:09;17.50;99.90
2721;DHT22;1368;49.484;11.112;2023-06-26T03:42:35;17.70;99.90
2721;DHT22;1368;49.484;11.112;2023-06-26T03:45:00;18.20;99.90
2721;DHT22;1368;49.484;11.112;2023-06-26T03:47:26;19.10;99.90
2721;DHT22;1368;49.484;11.112;2023-06-26T03:49:51;19.30;99.90
2721;DHT22;1368;49.484;11.112;2023-06-26T03:52:17;19.60;99.90
2721;DHT22;1368;49.484;11.112;2023-06-26T03:54:42;19.80;99.90
2721;DHT22;1368;49.484;11.112;2023-06-26T03:57:08;20.20;99.90
2721;DHT22;1368;49.484;11.112;2023-06-26T03:59:34;20.40;99.90
2721;DHT22;1368;49.484;11.112;2023-06-26T04:01:59;20.80;99.90
2721;DHT22;1368;49.484;11.112;2023-06-26T04:04:25;21.20;99.90
2721;DHT22;1368;49.484;11.112;2023-06-26T04:06:51;21.80;99.90
2721;DHT22;1368;49.484;11.112;2023-06-26T04:09:16;22.20;99.90
2721;DHT22;1368;49.484;11.112;2023-06-26T04:11:42;22.20;99.90
2721;DHT22;1368;49.484;11.112;2023-06-26T04:14:07;22.90;99.90
2721;DHT22;1368;49.484;11.112;2023-06-26T04:16:33;23.00;99.90
2721;DHT22;1368;49.484;11.112;2023-06-26T04:18:59;23.40;99.90
2721;DHT22;1368;49.484;11.112;2023-06-26T04:21:24;23.90;99.90
2721;DHT22;1368;49.484;11.112;2023-06-26T04:23:50;24.30;99.90
2721;DHT22;1368;49.484;11.112;2023-06-26T04:26:16;24.50;99.90
2721;DHT22;1368;49.484;11.112;2023-06-26T04:28:42;24.80;99.90
2721;DHT22;1368;49.484;11.112;2023-06-26T04:31:08;25.10;99.90
2721;DHT22;1368;49.484;11.112;2023-06-26T04:33:34;25.40;99.80
2721;DHT22;1368;49.484;11.112;2023-06-26T04:36:04;26.40;99.10
2721;DHT22;1368;49.484;11.112;2023-06-26T04:38:33;25.90;98.30
2721;DHT22;1368;49.484;11.112;2023-06-26T04:41:00;26.10;97.90
2721;DHT22;1368;49.484;11.112;2023-06-26T04:43:26;27.00;97.90
2721;DHT22;1368;49.484;11.112;2023-06-26T04:45:51;27.00;96.30
2721;DHT22;1368;49.484;11.112;2023-06-26T04:48:17;27.30;95.30
2721;DHT22;1368;49.484;11.112;2023-06-26T04:50:43;27.70;95.50
2721;DHT22;1368;49.484;11.112;2023-06-26T04:53:08;27.40;94.80
2721;DHT22;1368;49.484;11.112;2023-06-26T04:55:35;28.00;94.20
2721;DHT22;1368;49.484;11.112;2023-06-26T04:58:00;28.20;93.30
2721;DHT22;1368;49.484;11.112;2023-06-26T05:00:26;28.50;92.70
2721;DHT22;1368;49.484;11.112;2023-06-26T05:02:52;28.60;92.00
2721;DHT22;1368;49.484;11.112;2023-06-26T05:05:27;28.70;91.60
2721;DHT22;1368;49.484;11.112;2023-06-26T05:07:56;28.80;91.60
2721;DHT22;1368;49.484;11.112;2023-06-26T05:10:22;29.10;91.20
2721;DHT22;1368;49.484;11.112;2023-06-26T05:12:48;29.40;90.20
2721;DHT22;1368;49.484;11.112;2023-06-26T05:15:13;29.80;90.00
2721;DHT22;1368;49.484;11.112;2023-06-26T05:17:39;30.30;87.50
2721;DHT22;1368;49.484;11.112;2023-06-26T05:20:05;30.70;86.00
2721;DHT22;1368;49.484;11.112;2023-06-26T05:22:32;30.90;83.70
2721;DHT22;1368;49.484;11.112;2023-06-26T05:24:59;31.10;80.80
2721;DHT22;1368;49.484;11.112;2023-06-26T05:27:26;30.90;80.70
2721;DHT22;1368;49.484;11.112;2023-06-26T05:29:52;30.70;80.40
2721;DHT22;1368;49.484;11.112;2023-06-26T05:32:18;30.70;79.40
2721;DHT22;1368;49.484;11.112;2023-06-26T05:34:51;30.80;80.70
2721;DHT22;1368;49.484;11.112;2023-06-26T05:37:20;31.10;79.50
2721;DHT22;1368;49.484;11.112;2023-06-26T05:39:46;31.70;76.50
2721;DHT22;1368;49.484;11.112;2023-06-26T05:42:12;31.90;74.70
2721;DHT22;1368;49.484;11.112;2023-06-26T05:44:38;32.10;74.40
2721;DHT22;1368;49.484;11.112;2023-06-26T05:47:04;32.10;74.10
2721;DHT22;1368;49.484;11.112;2023-06-26T05:49:29;32.60;71.10
2721;DHT22;1368;49.484;11.112;2023-06-26T05:51:55;32.60;71.00
2721;DHT22;1368;49.484;11.112;2023-06-26T05:54:22;32.60;69.90
2721;DHT22;1368;49.484;11.112;2023-06-26T05:56:48;32.70;69.80
2721;DHT22;1368;49.484;11.112;2023-06-26T05:59:15;32.90;69.00
2721;DHT22;1368;49.484;11.112;2023-06-26T06:01:42;32.80;69.00
2721;DHT22;1368;49.484;11.112;2023-06-26T06:04:08;33.10;69.30
2721;DHT22;1368;49.484;11.112;2023-06-26T06:06:33;33.30;67.90
2721;DHT22;1368;49.484;11.112;2023-06-26T06:08:59;33.90;67.70
2721;DHT22;1368;49.484;11.112;2023-06-26T06:11:24;34.30;66.30
2721;DHT22;1368;49.484;11.112;2023-06-26T06:13:50;34.20;65.10
2721;DHT22;1368;49.484;11.112;2023-06-26T06:16:15;34.10;64.70
2721;DHT22;1368;49.484;11.112;2023-06-26T06:18:41;33.90;65.10
2721;DHT22;1368;49.484;11.112;2023-06-26T06:21:06;34.40;65.30
2721;DHT22;1368;49.484;11.112;2023-06-26T06:23:32;34.50;63.30
2721;DHT22;1368;49.484;11.112;2023-06-26T06:25:57;34.80;62.30
2721;DHT22;1368;49.484;11.112;2023-06-26T06:28:23;34.80;60.70
2721;DHT22;1368;49.484;11.112;2023-06-26T06:30:48;35.00;62.40
2721;DHT22;1368;49.484;11.112;2023-06-26T06:33:14;35.60;59.60
2721;DHT22;1368;49.484;11.112;2023-06-26T06:35:40;36.20;58.70
2721;DHT22;1368;49.484;11.112;2023-06-26T06:38:05;36.90;57.40
2721;DHT22;1368;49.484;11.112;2023-06-26T06:40:31;36.70;55.30
2721;DHT22;1368;49.484;11.112;2023-06-26T06:42:56;36.20;55.40
2721;DHT22;1368;49.484;11.112;2023-06-26T06:45:22;36.00;55.60
2721;DHT22;1368;49.484;11.112;2023-06-26T06:47:47;35.80;55.60
2721;DHT22;1368;49.484;11.112;2023-06-26T06:50:13;35.80;55.70
2721;DHT22;1368;49.484;11.112;2023-06-26T06:52:43;36.30;56.40
2721;DHT22;1368;49.484;11.112;2023-06-26T06:55:09;36.90;55.00
2721;DHT22;1368;49.484;11.112;2023-06-26T06:57:39;37.50;53.30
2721;DHT22;1368;49.484;11.112;2023-06-26T07:00:09;38.20;52.80
2721;DHT22;1368;49.484;11.112;2023-06-26T07:02:39;38.20;50.90
2721;DHT22;1368;49.484;11.112;2023-06-26T07:05:06;38.00;50.90
2721;DHT22;1368;49.484;11.112;2023-06-26T07:07:32;38.30;50.80
2721;DHT22;1368;49.484;11.112;2023-06-26T07:10:03;38.40;51.20
2721;DHT22;1368;49.484;11.112;2023-06-26T07:12:29;38.40;51.00
2721;DHT22;1368;49.484;11.112;2023-06-26T07:14:56;38.70;50.30
2721;DHT22;1368;49.484;11.112;2023-06-26T07:17:22;38.90;47.90
2721;DHT22;1368;49.484;11.112;2023-06-26T07:19:48;39.30;48.90
2721;DHT22;1368;49.484;11.112;2023-06-26T07:22:14;39.20;46.20
2721;DHT22;1368;49.484;11.112;2023-06-26T07:24:40;38.30;46.90
2721;DHT22;1368;49.484;11.112;2023-06-26T07:27:05;37.70;47.20
2721;DHT22;1368;49.484;11.112;2023-06-26T07:29:31;38.40;48.70
2721;DHT22;1368;49.484;11.112;2023-06-26T07:31:57;39.10;48.50
2721;DHT22;1368;49.484;11.112;2023-06-26T07:34:22;39.40;46.80
2721;DHT22;1368;49.484;11.112;2023-06-26T07:36:48;40.00;45.50
2721;DHT22;1368;49.484;11.112;2023-06-26T07:39:13;40.30;45.10
2721;DHT22;1368;49.484;11.112;2023-06-26T07:41:39;40.20;46.20
2721;DHT22;1368;49.484;11.112;2023-06-26T07:44:04;40.50;45.20
2721;DHT22;1368;49.484;11.112;2023-06-26T07:46:30;40.90;44.90
2721;DHT22;1368;49.484;11.112;2023-06-26T07:48:55;40.80;43.40
2721;DHT22;1368;49.484;11.112;2023-06-26T07:51:21;40.10;44.30
2721;DHT22;1368;49.484;11.112;2023-06-26T07:53:47;39.80;44.10
2721;DHT22;1368;49.484;11.112;2023-06-26T07:56:13;39.40;44.50
2721;DHT22;1368;49.484;11.112;2023-06-26T07:58:38;39.30;45.50
2721;DHT22;1368;49.484;11.112;2023-06-26T08:01:04;39.40;45.60
2721;DHT22;1368;49.484;11.112;2023-06-26T08:03:29;39.80;45.40
2721;DHT22;1368;49.484;11.112;2023-06-26T08:05:55;40.50;45.10
2721;DHT22;1368;49.484;11.112;2023-06-26T08:08:20;41.10;43.40
2721;DHT22;1368;49.484;11.112;2023-06-26T08:10:46;40.90;44.40
2721;DHT22;1368;49.484;11.112;2023-06-26T08:13:11;41.20;45.00
2721;DHT22;1368;49.484;11.112;2023-06-26T08:15:37;41.80;44.00
2721;DHT22;1368;49.484;11.112;2023-06-26T08:18:03;42.00;42.50
2721;DHT22;1368;49.484;11.112;2023-06-26T08:20:28;41.90;41.80
2721;DHT22;1368;49.484;11.112;2023-06-26T08:22:54;41.90;43.00
2721;DHT22;1368;49.484;11.112;2023-06-26T08:25:20;41.90;42.20
2721;DHT22;1368;49.484;11.112;2023-06-26T08:27:46;41.40;42.10
2721;DHT22;1368;49.484;11.112;2023-06-26T08:30:11;40.50;43.10
2721;DHT22;1368;49.484;11.112;2023-06-26T08:32:37;40.80;43.70
2721;DHT22;1368;49.484;11.112;2023-06-26T08:35:03;41.40;43.00
2721;DHT22;1368;49.484;11.112;2023-06-26T08:37:29;41.70;42.60
2721;DHT22;1368;49.484;11.112;2023-06-26T08:39:56;41.90;43.00
2721;DHT22;1368;49.484;11.112;2023-06-26T08:42:22;42.40;42.70
2721;DHT22;1368;49.484;11.112;2023-06-26T08:44:47;42.80;42.00
2721;DHT22;1368;49.484;11.112;2023-06-26T08:47:13;42.90;41.80
2721;DHT22;1368;49.484;11.112;2023-06-26T08:50:01;42.50;40.40
2721;DHT22;1368;49.484;11.112;2023-06-26T08:52:35;41.80;41.10
2721;DHT22;1368;49.484;11.112;2023-06-26T08:55:02;42.10;41.80
2721;DHT22;1368;49.484;11.112;2023-06-26T08:57:32;41.90;41.70
2721;DHT22;1368;49.484;11.112;2023-06-26T08:59:57;42.20;40.90
2721;DHT22;1368;49.484;11.112;2023-06-26T09:02:23;41.80;41.70
2721;DHT22;1368;49.484;11.112;2023-06-26T09:04:50;42.00;41.00
2721;DHT22;1368;49.484;11.112;2023-06-26T09:07:16;42.10;41.50
2721;DHT22;1368;49.484;11.112;2023-06-26T09:09:42;41.30;40.50
2721;DHT22;1368;49.484;11.112;2023-06-26T09:12:11;40.80;41.70
2721;DHT22;1368;49.484;11.112;2023-06-26T09:14:37;40.60;41.90
2721;DHT22;1368;49.484;11.112;2023-06-26T09:17:03;40.60;43.00
2721;DHT22;1368;49.484;11.112;2023-06-26T09:19:29;40.90;42.40
2721;DHT22;1368;49.484;11.112;2023-06-26T09:21:55;40.90;42.20
2721;DHT22;1368;49.484;11.112;2023-06-26T09:24:21;40.70;42.50
2721;DHT22;1368;49.484;11.112;2023-06-26T09:26:48;40.90;41.90
2721;DHT22;1368;49.484;11.112;2023-06-26T09:29:14;41.40;41.00
2721;DHT22;1368;49.484;11.112;2023-06-26T09:31:40;41.50;41.20
2721;DHT22;1368;49.484;11.112;2023-06-26T09:34:06;41.90;42.70
2721;DHT22;1368;49.484;11.112;2023-06-26T09:36:33;42.20;42.50
2721;DHT22;1368;49.484;11.112;2023-06-26T09:39:00;42.00;40.50
2721;DHT22;1368;49.484;11.112;2023-06-26T09:41:26;41.70;42.00
2721;DHT22;1368;49.484;11.112;2023-06-26T09:43:52;41.20;41.10
2721;DHT22;1368;49.484;11.112;2023-06-26T09:46:25;41.10;43.00
2721;DHT22;1368;49.484;11.112;2023-06-26T09:49:01;41.60;41.20
2721;DHT22;1368;49.484;11.112;2023-06-26T09:51:26;42.10;40.60
2721;DHT22;1368;49.484;11.112;2023-06-26T09:53:54;42.20;40.80
2721;DHT22;1368;49.484;11.112;2023-06-26T09:56:19;42.40;40.40
2721;DHT22;1368;49.484;11.112;2023-06-26T09:58:47;42.40;40.00
2721;DHT22;1368;49.484;11.112;2023-06-26T10:01:13;41.80;40.50
2721;DHT22;1368;49.484;11.112;2023-06-26T10:03:39;42.00;41.00
2721;DHT22;1368;49.484;11.112;2023-06-26T10:06:05;42.10;40.10
2721;DHT22;1368;49.484;11.112;2023-06-26T10:08:34;42.20;39.10
2721;DHT22;1368;49.484;11.112;2023-06-26T10:11:00;42.00;38.50
2721;DHT22;1368;49.484;11.112;2023-06-26T10:13:31;42.00;40.80
2721;DHT22;1368;49.484;11.112;2023-06-26T10:16:00;42.00;39.10
2721;DHT22;1368;49.484;11.112;2023-06-26T10:18:27;41.90;39.70
2721;DHT22;1368;49.484;11.112;2023-06-26T10:20:58;42.00;40.20
2721;DHT22;1368;49.484;11.112;2023-06-26T10:23:26;42.10;39.40
2721;DHT22;1368;49.484;11.112;2023-06-26T10:25:55;41.90;39.00
2721;DHT22;1368;49.484;11.112;2023-06-26T10:28:24;41.20;38.60
2721;DHT22;1368;49.484;11.112;2023-06-26T10:30:51;40.90;40.40
2721;DHT22;1368;49.484;11.112;2023-06-26T10:33:18;40.90;41.00
2721;DHT22;1368;49.484;11.112;2023-06-26T10:35:44;40.90;40.10
2721;DHT22;1368;49.484;11.112;2023-06-26T10:38:10;40.40;39.50
2721;DHT22;1368;49.484;11.112;2023-06-26T10:40:44;40.40;38.70
2721;DHT22;1368;49.484;11.112;2023-06-26T10:43:12;39.90;40.60
2721;DHT22;1368;49.484;11.112;2023-06-26T10:45:46;39.90;40.20
2721;DHT22;1368;49.484;11.112;2023-06-26T10:48:15;40.00;40.60
2721;DHT22;1368;49.484;11.112;2023-06-26T10:50:41;40.00;41.20
2721;DHT22;1368;49.484;11.112;2023-06-26T10:56:05;39.90;41.10
2721;DHT22;1368;49.484;11.112;2023-06-26T10:58:40;40.00;42.40
2721;DHT22;1368;49.484;11.112;2023-06-26T11:01:18;40.30;40.50
2721;DHT22;1368;49.484;11.112;2023-06-26T11:03:48;40.50;41.20
2721;DHT22;1368;49.484;11.112;2023-06-26T11:06:19;40.50;40.40
2721;DHT22;1368;49.484;11.112;2023-06-26T11:08:52;40.20;40.30
2721;DHT22;1368;49.484;11.112;2023-06-26T11:11:19;40.30;40.70
2721;DHT22;1368;49.484;11.112;2023-06-26T11:13:47;40.70;38.80
2721;DHT22;1368;49.484;11.112;2023-06-26T11:16:13;40.60;38.90
2721;DHT22;1368;49.484;11.112;2023-06-26T11:18:42;40.40;39.60
2721;DHT22;1368;49.484;11.112;2023-06-26T11:21:09;40.20;38.50
2721;DHT22;1368;49.484;11.112;2023-06-26T11:23:37;39.90;39.50
2721;DHT22;1368;49.484;11.112;2023-06-26T11:26:38;39.40;40.20
2721;DHT22;1368;49.484;11.112;2023-06-26T11:29:04;39.50;41.00
2721;DHT22;1368;49.484;11.112;2023-06-26T11:31:31;39.60;39.60
2721;DHT22;1368;49.484;11.112;2023-06-26T11:33:58;39.50;39.60
2721;DHT22;1368;49.484;11.112;2023-06-26T11:36:24;39.10;41.60
2721;DHT22;1368;49.484;11.112;2023-06-26T11:39:09;38.90;41.20
2721;DHT22;1368;49.484;11.112;2023-06-26T11:41:36;38.90;41.00
2721;DHT22;1368;49.484;11.112;2023-06-26T11:44:06;38.60;40.10
2721;DHT22;1368;49.484;11.112;2023-06-26T11:46:33;38.40;41.00
2721;DHT22;1368;49.484;11.112;2023-06-26T11:48:59;38.00;41.30
2721;DHT22;1368;49.484;11.112;2023-06-26T11:51:27;37.60;40.80
2721;DHT22;1368;49.484;11.112;2023-06-26T11:53:53;37.30;41.40
2721;DHT22;1368;49.484;11.112;2023-06-26T11:56:19;37.40;40.80
2721;DHT22;1368;49.484;11.112;2023-06-26T11:59:03;37.30;40.40
2721;DHT22;1368;49.484;11.112;2023-06-26T12:01:36;37.10;40.90
2721;DHT22;1368;49.484;11.112;2023-06-26T12:04:08;36.90;41.70
2721;DHT22;1368;49.484;11.112;2023-06-26T12:06:36;37.10;41.10
2721;DHT22;1368;49.484;11.112;2023-06-26T12:09:08;37.10;41.20
2721;DHT22;1368;49.484;11.112;2023-06-26T12:11:38;37.00;41.70
2721;DHT22;1368;49.484;11.112;2023-06-26T12:14:06;36.80;41.50
2721;DHT22;1368;49.484;11.112;2023-06-26T12:16:33;36.80;42.60
2721;DHT22;1368;49.484;11.112;2023-06-26T12:19:04;36.90;43.20
2721;DHT22;1368;49.484;11.112;2023-06-26T12:24:12;36.80;43.20
2721;DHT22;1368;49.484;11.112;2023-06-26T12:26:38;37.00;41.10
2721;DHT22;1368;49.484;11.112;2023-06-26T12:29:12;36.90;41.50
2721;DHT22;1368;49.484;11.112;2023-06-26T12:31:55;36.90;43.10
2721;DHT22;1368;49.484;11.112;2023-06-26T12:34:28;37.00;42.90
2721;DHT22;1368;49.484;11.112;2023-06-26T12:36:58;36.90;41.60
2721;DHT22;1368;49.484;11.112;2023-06-26T12:39:24;36.90;41.70
2721;DHT22;1368;49.484;11.112;2023-06-26T12:41:54;36.90;41.60
2721;DHT22;1368;49.484;11.112;2023-06-26T12:44:27;37.10;41.50
2721;DHT22;1368;49.484;11.112;2023-06-26T12:47:02;37.20;42.30
2721;DHT22;1368;49.484;11.112;2023-06-26T12:49:38;37.00;41.70
2721;DHT22;1368;49.484;11.112;2023-06-26T12:52:07;36.90;42.70
2721;DHT22;1368;49.484;11.112;2023-06-26T12:54:37;36.80;41.60
2721;DHT22;1368;49.484;11.112;2023-06-26T12:57:03;36.60;42.70
2721;DHT22;1368;49.484;11.112;2023-06-26T12:59:30;36.40;42.90
2721;DHT22;1368;49.484;11.112;2023-06-26T13:01:57;36.60;42.80
2721;DHT22;1368;49.484;11.112;2023-06-26T13:04:22;36.80;43.40
2721;DHT22;1368;49.484;11.112;2023-06-26T13:06:48;37.10;44.50
2721;DHT22;1368;49.484;11.112;2023-06-26T13:09:13;37.30;43.70
2721;DHT22;1368;49.484;11.112;2023-06-26T13:11:39;37.30;42.60
2721;DHT22;1368;49.484;11.112;2023-06-26T13:14:05;37.30;42.70
2721;DHT22;1368;49.484;11.112;2023-06-26T13:16:31;37.40;43.00
2721;DHT22;1368;49.484;11.112;2023-06-26T13:18:58;37.20;43.30
2721;DHT22;1368;49.484;11.112;2023-06-26T13:21:24;37.20;43.70
2721;DHT22;1368;49.484;11.112;2023-06-26T13:23:50;37.10;44.00
2721;DHT22;1368;49.484;11.112;2023-06-26T13:26:15;37.00;43.60
2721;DHT22;1368;49.484;11.112;2023-06-26T13:28:41;36.80;44.00
2721;DHT22;1368;49.484;11.112;2023-06-26T13:31:06;36.70;43.80
2721;DHT22;1368;49.484;11.112;2023-06-26T13:33:35;36.60;44.30
2721;DHT22;1368;49.484;11.112;2023-06-26T13:36:01;36.80;45.00
2721;DHT22;1368;49.484;11.112;2023-06-26T13:38:32;36.60;45.70
2721;DHT22;1368;49.484;11.112;2023-06-26T13:40:58;36.50;46.00
2721;DHT22;1368;49.484;11.112;2023-06-26T13:43:26;36.70;46.30
2721;DHT22;1368;49.484;11.112;2023-06-26T13:45:52;37.00;45.80
2721;DHT22;1368;49.484;11.112;2023-06-26T13:48:18;37.20;45.30
2721;DHT22;1368;49.484;11.112;2023-06-26T13:50:45;37.00;45.10
2721;DHT22;1368;49.484;11.112;2023-06-26T13:53:11;36.80;45.90
2721;DHT22;1368;49.484;11.112;2023-06-26T13:55:36;36.60;45.80
2721;DHT22;1368;49.484;11.112;2023-06-26T13:58:04;36.50;46.40
2721;DHT22;1368;49.484;11.112;2023-06-26T14:00:31;36.80;46.10
2721;DHT22;1368;49.484;11.112;2023-06-26T14:02:56;36.80;46.00
2721;DHT22;1368;49.484;11.112;2023-06-26T14:05:22;36.90;46.80
2721;DHT22;1368;49.484;11.112;2023-06-26T14:07:48;37.00;46.80
2721;DHT22;1368;49.484;11.112;2023-06-26T14:10:14;37.20;47.30
2721;DHT22;1368;49.484;11.112;2023-06-26T14:12:41;37.00;47.50
2721;DHT22;1368;49.484;11.112;2023-06-26T14:15:07;37.10;46.70
2721;DHT22;1368;49.484;11.112;2023-06-26T14:17:32;37.20;47.00
2721;DHT22;1368;49.484;11.112;2023-06-26T14:19:58;37.10;48.00
2721;DHT22;1368;49.484;11.112;2023-06-26T14:22:24;36.80;47.40
2721;DHT22;1368;49.484;11.112;2023-06-26T14:24:50;36.50;47.40
2721;DHT22;1368;49.484;11.112;2023-06-26T14:27:16;36.90;48.60
2721;DHT22;1368;49.484;11.112;2023-06-26T14:29:41;36.80;47.70
2721;DHT22;1368;49.484;11.112;2023-06-26T14:32:07;36.50;48.40
2721;DHT22;1368;49.484;11.112;2023-06-26T14:34:33;36.30;48.30
2721;DHT22;1368;49.484;11.112;2023-06-26T14:36:59;36.20;48.80
2721;DHT22;1368;49.484;11.112;2023-06-26T14:39:24;36.30;48.60
2721;DHT22;1368;49.484;11.112;2023-06-26T14:41:50;36.40;48.90
2721;DHT22;1368;49.484;11.112;2023-06-26T14:44:15;36.30;47.90
2721;DHT22;1368;49.484;11.112;2023-06-26T14:46:41;36.10;48.10
2721;DHT22;1368;49.484;11.112;2023-06-26T14:49:07;36.10;48.60
2721;DHT22;1368;49.484;11.112;2023-06-26T14:51:33;36.20;48.70
2721;DHT22;1368;49.484;11.112;2023-06-26T14:53:59;36.30;48.70
2721;DHT22;1368;49.484;11.112;2023-06-26T14:56:25;36.30;49.40
2721;DHT22;1368;49.484;11.112;2023-06-26T14:58:53;36.50;49.70
2721;DHT22;1368;49.484;11.112;2023-06-26T15:01:20;36.70;49.20
2721;DHT22;1368;49.484;11.112;2023-06-26T15:03:46;36.50;49.30
2721;DHT22;1368;49.484;11.112;2023-06-26T15:06:12;36.40;49.00
2721;DHT22;1368;49.484;11.112;2023-06-26T15:08:38;36.40;49.00
2721;DHT22;1368;49.484;11.112;2023-06-26T15:11:04;36.00;48.60
2721;DHT22;1368;49.484;11.112;2023-06-26T15:13:29;35.60;49.50
2721;DHT22;1368;49.484;11.112;2023-06-26T15:15:55;35.50;49.50
2721;DHT22;1368;49.484;11.112;2023-06-26T15:18:20;35.40;50.50
2721;DHT22;1368;49.484;11.112;2023-06-26T15:20:46;35.10;50.20
2721;DHT22;1368;49.484;11.112;2023-06-26T15:23:11;35.10;50.90
2721;DHT22;1368;49.484;11.112;2023-06-26T15:25:38;34.80;51.30
2721;DHT22;1368;49.484;11.112;2023-06-26T15:28:04;34.50;52.30
2721;DHT22;1368;49.484;11.112;2023-06-26T15:30:30;34.10;53.80
2721;DHT22;1368;49.484;11.112;2023-06-26T15:32:56;33.70;55.00
2721;DHT22;1368;49.484;11.112;2023-06-26T15:35:21;33.50;55.80
2721;DHT22;1368;49.484;11.112;2023-06-26T15:37:47;33.40;56.50
2721;DHT22;1368;49.484;11.112;2023-06-26T15:40:14;33.40;56.50
2721;DHT22;1368;49.484;11.112;2023-06-26T15:42:50;33.20;56.80
2721;DHT22;1368;49.484;11.112;2023-06-26T15:45:18;33.20;57.40
2721;DHT22;1368;49.484;11.112;2023-06-26T15:47:44;33.40;57.00
2721;DHT22;1368;49.484;11.112;2023-06-26T15:50:10;33.40;56.60
2721;DHT22;1368;49.484;11.112;2023-06-26T15:52:37;33.20;56.80